Pagrindinis puslapis
METAR-TAF:

METAR-TAF

Oro uostai :

Bergenas, Norvegija

platuma: 60-17N, ilguma: 005-14E, Aukštis: 5 m

Dabartinis oras

Ataskaita buvo paskelbta 1 valandą ir 26 minutes, ne 12:50 UTC
Vėjas 7 kt iš Pietvakarių, svyruoja nuo Pietų ir Vakarų
Temperatūra 19°C
Drėgmė 52%
Slėgis 1029 hPa
Matomumas 10 km arba daugiau
Mažai debesys ne aukštis 3000 ft
Išsisklaidę debesys ne aukštis 20000 ft

METAR: ENBR 011250Z 22007KT 180V270 9999 FEW030 SCT200 19/09 Q1029 NOSIG RMK WIND 1200FT 25010KT

Laikas: 16:16 (14:16 UTC)

Prognozė

Prognozė galioja nuo 01 metu 12 UTC su 02 metu 12 UTC
Vėjas 10 kt iš Pietų/Pietvakarių
Matomumas 10 km arba daugiau
nėra debesų žemiau 1500 m ir nėra kamuolinių lietaus debesų
Tikimybė 30%
nuo 01 metu 14 UTC su 01 metu 19 UTC
Vėjas 10 kt iš Šiaurės/Šiaurės Vakarų
Tapsmas
nuo 01 metu 19 UTC su 01 metu 21 UTC
Vėjas 5 kt nuo kintamojo kryptimis

TAF: ENBR 0112/0212 21010KT CAVOK PROB30 0114/0119 33010KT BECMG 0119/0121 VRB05KT

Orai ataskaitas ir orų prognozės (METAR, TAF).

turimą stotys yra geltonos ir raudonos taškus žemėlapyje.

Perkelti pele per norėdami pamatyti stoties vardą.

Tada spustelėkite, norėdami matyti oro stebėjimo ir prognozės.

Norėdami pakeisti žemėlapį: spustelėkite ant žalios mygtukų su juodo kryžiaus žemyn,; žalią mygtuką su brūkšneliu, jei norite nutolinti; arba žalių rodyklių gretimoms žemėlapius.


METAR-TAF: